Glasgow, Iowa
Current Conditions -  °F | °C
As of 3:35 PM on Saturday 25 Oct 2014 (Local Time) from KFFL Reporting Station
Clear Clear  
Wind Chill: 72°   Ceiling: Unl
Heat Index: 72°   Visibility: NA
Dew Point: 37°   Wind: 6mph
Humidity: 29%   Direction: 310°NW
Pressure: 30.05"   Gusts: 14mph
Location:  40.9879°N, 91.8924°W
Report Text: KFFL 252035Z AUTO 31005G12KT CLR 22/03 A3005 RMK AO2
Loading
Personal Weather Stations






























Interactive Weather Map
Tropical Storm Tracking
New forecast layout! Learn more

10-Day Weather Forecast

Advertisements
Track Severe Weather on mobile